Time;durP1;ratioP1;P1;durP2;ratioP2;P2;SDS_P1;SDS_P2;PMS_P1;PMS_P2;Temp;Humidity;BMP_temperature;BMP_pressure;BME280_temperature;BME280_humidity;BME280_pressure;Samples;Min_cycle;Max_cycle;Signal;HPM_P1;HPM_P2
2022/07/13 00:01:08;;;;;;;6.88;4.30;;;;;;;17.70;100.00;98641.25;5014405;28;20030;-74
2022/07/13 00:03:34;;;;;;;5.70;3.85;;;;;;;17.59;100.00;98643.53;4995248;28;20480;-73
2022/07/13 00:05:59;;;;;;;6.72;3.97;;;;;;;17.67;100.00;98641.13;5013687;28;20108;-73
2022/07/13 00:08:24;;;;;;;6.78;3.65;;;;;;;17.65;100.00;98638.66;5013320;28;20068;-74
2022/07/13 00:10:50;;;;;;;5.82;3.67;;;;;;;17.45;100.00;98650.31;5013981;28;20402;-74
2022/07/13 00:13:15;;;;;;;6.63;4.13;;;;;;;17.42;100.00;98637.94;4996447;28;20064;-74
2022/07/13 00:15:40;;;;;;;6.65;4.00;;;;;;;17.32;100.00;98645.75;5013918;28;20029;-74
2022/07/13 00:18:06;;;;;;;5.20;3.40;;;;;;;17.41;100.00;98643.81;5013727;28;20034;-74
2022/07/13 00:20:31;;;;;;;5.72;3.33;;;;;;;17.27;100.00;98643.13;4996131;28;20022;-74
2022/07/13 00:22:57;;;;;;;5.70;3.80;;;;;;;17.27;100.00;98655.00;5014059;28;20034;-74
2022/07/13 00:25:22;;;;;;;4.60;3.30;;;;;;;17.22;100.00;98649.63;5013982;28;20018;-74
2022/07/13 00:27:48;;;;;;;5.55;3.75;;;;;;;17.10;100.00;98658.53;4996223;28;20041;-74
2022/07/13 00:30:14;;;;;;;6.68;3.38;;;;;;;17.02;100.00;98656.56;5013901;28;20026;-73
2022/07/13 00:32:39;;;;;;;4.28;3.20;;;;;;;16.97;100.00;98653.13;5013991;28;20820;-74
2022/07/13 00:35:05;;;;;;;6.57;3.85;;;;;;;16.99;100.00;98650.84;5014436;28;20038;-73
2022/07/13 00:37:31;;;;;;;4.70;3.42;;;;;;;16.86;100.00;98649.00;5013794;28;20489;-74
2022/07/13 00:39:56;;;;;;;5.05;3.33;;;;;;;16.80;100.00;98647.53;5013564;28;20030;-73
2022/07/13 00:42:21;;;;;;;9.52;3.38;;;;;;;16.76;100.00;98644.56;4995862;28;20598;-73
2022/07/13 00:44:48;;;;;;;6.80;3.60;;;;;;;16.71;100.00;98647.50;5013889;28;20063;-74
2022/07/13 00:47:15;;;;;;;4.50;3.10;;;;;;;16.62;100.00;98649.41;5013494;28;20521;-73
2022/07/13 00:49:41;;;;;;;4.47;3.42;;;;;;;16.65;100.00;98662.56;5015892;28;20041;-72
2022/07/13 00:52:07;;;;;;;6.20;3.60;;;;;;;16.68;100.00;98652.81;5017532;28;20022;-73
2022/07/13 00:54:32;;;;;;;5.35;3.45;;;;;;;16.78;100.00;98658.09;5016787;28;20501;-74
2022/07/13 00:56:59;;;;;;;6.65;4.00;;;;;;;16.76;100.00;98649.31;5013802;28;20037;-73
2022/07/13 00:59:25;;;;;;;5.38;3.60;;;;;;;16.67;100.00;98651.19;5013457;28;20073;-73
2022/07/13 01:01:50;;;;;;;8.52;3.65;;;;;;;16.60;100.00;98657.19;5013072;28;20490;-73
2022/07/13 01:04:17;;;;;;;4.20;3.30;;;;;;;16.58;100.00;98648.41;5013294;28;20022;-73
2022/07/13 01:06:42;;;;;;;9.77;4.13;;;;;;;16.57;100.00;98635.72;5013404;28;20030;-74
2022/07/13 01:09:08;;;;;;;6.68;3.85;;;;;;;16.60;100.00;98646.16;5013113;28;20498;-74
2022/07/13 01:11:34;;;;;;;4.60;3.65;;;;;;;16.48;100.00;98654.97;4995374;28;20066;-73
2022/07/13 01:14:00;;;;;;;7.05;3.70;;;;;;;16.39;100.00;98654.09;5013169;28;20053;-73
2022/07/13 01:16:25;;;;;;;5.82;3.58;;;;;;;16.42;100.00;98647.94;5012918;28;20025;-73
2022/07/13 01:18:51;;;;;;;6.13;3.42;;;;;;;16.47;100.00;98652.53;5013112;28;20129;-73
2022/07/13 01:21:18;;;;;;;4.68;3.33;;;;;;;16.43;100.00;98654.28;5012751;28;20026;-73
2022/07/13 01:23:43;;;;;;;4.57;3.47;;;;;;;16.47;100.00;98650.59;5013026;28;20466;-73
2022/07/13 01:26:10;;;;;;;4.22;3.03;;;;;;;16.52;100.00;98644.09;5011740;28;20057;-73
2022/07/13 01:28:36;;;;;;;5.60;3.70;;;;;;;16.66;100.00;98650.41;5013092;28;20141;-73
2022/07/13 01:31:02;;;;;;;5.47;3.53;;;;;;;16.43;100.00;98644.06;5012887;28;20186;-73
2022/07/13 01:33:27;;;;;;;6.15;3.47;;;;;;;16.31;100.00;98649.38;5012597;28;20022;-73
2022/07/13 01:35:52;;;;;;;4.82;3.50;;;;;;;16.24;100.00;98648.16;5013160;28;20033;-73
2022/07/13 01:38:18;;;;;;;4.65;3.20;;;;;;;16.15;100.00;98645.34;5012647;28;20064;-72
2022/07/13 01:40:43;;;;;;;5.50;3.47;;;;;;;16.05;100.00;98640.09;5012803;28;20037;-75
2022/07/13 01:43:09;;;;;;;6.10;4.15;;;;;;;16.05;100.00;98640.91;5013014;28;20037;-74
2022/07/13 01:45:34;;;;;;;5.43;3.47;;;;;;;16.17;100.00;98636.75;5013554;28;20034;-72
2022/07/13 01:48:00;;;;;;;4.70;3.22;;;;;;;16.20;100.00;98638.88;5017585;28;20030;-72
2022/07/13 01:50:27;;;;;;;6.70;3.53;;;;;;;16.08;100.00;98634.75;5011867;28;20038;-74
2022/07/13 01:52:53;;;;;;;8.90;4.00;;;;;;;16.05;100.00;98640.91;5011688;28;20147;-72
2022/07/13 01:55:18;;;;;;;4.97;4.05;;;;;;;15.97;100.00;98638.09;5011137;28;20026;-72
2022/07/13 01:57:44;;;;;;;5.68;4.07;;;;;;;15.95;100.00;98624.59;5010891;28;20096;-74
2022/07/13 02:00:18;;;;;;;5.22;4.00;;;;;;;15.81;100.00;98631.31;5012492;28;20025;-74
2022/07/13 02:02:44;;;;;;;4.18;3.40;;;;;;;15.80;100.00;98638.75;5012764;28;20142;-74
2022/07/13 02:05:10;;;;;;;6.25;3.53;;;;;;;15.84;100.00;98641.72;5012944;28;20112;-74
2022/07/13 02:07:37;;;;;;;6.43;3.53;;;;;;;15.90;100.00;98641.28;5012269;28;20033;-75
2022/07/13 02:10:07;;;;;;;3.95;3.38;;;;;;;15.81;100.00;98634.88;5012034;28;20030;-72
2022/07/13 02:12:33;;;;;;;4.55;3.70;;;;;;;15.82;100.00;98636.50;5011164;28;20084;-75
2022/07/13 02:14:58;;;;;;;4.40;3.40;;;;;;;15.81;100.00;98626.59;5011930;28;20030;-73
2022/07/13 02:17:24;;;;;;;4.90;3.40;;;;;;;15.81;100.00;98640.41;5011924;28;20084;-72
2022/07/13 02:19:50;;;;;;;4.32;3.28;;;;;;;15.97;100.00;98635.34;5011726;28;20574;-73
2022/07/13 02:22:15;;;;;;;5.65;3.30;;;;;;;15.84;100.00;98634.25;5011716;28;20045;-73
2022/07/13 02:24:40;;;;;;;5.18;4.15;;;;;;;15.82;100.00;98633.72;5011603;28;20076;-73
2022/07/13 02:27:06;;;;;;;4.78;3.85;;;;;;;15.91;100.00;98640.13;5011854;28;20037;-73
2022/07/13 02:29:31;;;;;;;7.15;3.97;;;;;;;16.00;100.00;98630.00;5011809;28;20831;-73
2022/07/13 02:31:57;;;;;;;7.13;4.00;;;;;;;15.89;100.00;98630.53;5011808;28;20022;-73
2022/07/13 02:34:29;;;;;;;7.55;3.83;;;;;;;15.76;100.00;98629.47;4990579;28;20054;-73
2022/07/13 02:36:55;;;;;;;5.88;3.88;;;;;;;15.78;100.00;98632.75;4992404;28;20030;-73
2022/07/13 02:39:21;;;;;;;9.88;3.95;;;;;;;15.85;100.00;98630.34;4991812;28;20451;-72
2022/07/13 02:41:46;;;;;;;4.32;3.47;;;;;;;15.80;100.00;98633.25;4991741;28;20065;-73
2022/07/13 02:44:12;;;;;;;4.72;4.18;;;;;;;15.81;100.00;98637.66;4991836;28;20030;-73
2022/07/13 02:46:37;;;;;;;5.15;3.70;;;;;;;15.70;100.00;98641.75;4991870;28;20081;-72
2022/07/13 02:49:02;;;;;;;4.50;3.67;;;;;;;15.70;100.00;98640.94;4991631;28;20019;-73
2022/07/13 02:51:28;;;;;;;5.85;3.80;;;;;;;15.52;100.00;98646.31;4991853;28;20128;-73
2022/07/13 02:53:53;;;;;;;7.30;4.05;;;;;;;15.37;100.00;98640.28;4991774;28;20387;-73
2022/07/13 02:56:18;;;;;;;7.28;3.83;;;;;;;15.50;100.00;98651.34;4991637;28;20368;-72
2022/07/13 02:58:44;;;;;;;4.32;3.50;;;;;;;15.63;100.00;98646.88;4991590;28;20034;-73
2022/07/13 03:01:09;;;;;;;7.03;4.00;;;;;;;15.57;100.00;98641.81;4991267;28;20030;-73
2022/07/13 03:03:34;;;;;;;6.78;3.80;;;;;;;15.52;100.00;98642.72;4991484;28;20392;-73
2022/07/13 03:06:01;;;;;;;5.85;3.63;;;;;;;15.57;100.00;98639.84;4992251;28;20033;-73
2022/07/13 03:08:26;;;;;;;6.28;3.50;;;;;;;15.56;100.00;98643.75;4990348;28;20027;-73
2022/07/13 03:10:52;;;;;;;6.35;3.55;;;;;;;15.62;100.00;98641.69;4991724;28;20026;-73
2022/07/13 03:13:17;;;;;;;5.70;4.30;;;;;;;15.52;100.00;98642.72;4991573;28;20037;-73
2022/07/13 03:15:42;;;;;;;5.13;3.92;;;;;;;15.53;100.00;98641.63;4991461;28;20033;-73
2022/07/13 03:18:08;;;;;;;5.35;4.05;;;;;;;15.36;100.00;98644.16;4991452;28;20056;-73
2022/07/13 03:20:34;;;;;;;7.65;3.65;;;;;;;15.41;100.00;98653.13;4991503;28;20394;-74
2022/07/13 03:23:00;;;;;;;5.75;3.40;;;;;;;15.49;100.00;98657.97;4982423;28;20499;-73
2022/07/13 03:25:25;;;;;;;7.18;3.88;;;;;;;15.44;100.00;98660.00;4985699;28;20125;-73
2022/07/13 03:27:51;;;;;;;7.25;4.10;;;;;;;15.37;100.00;98656.84;4990709;28;20037;-73
2022/07/13 03:30:16;;;;;;;4.82;3.83;;;;;;;15.24;100.00;98671.44;4990817;28;20084;-73
2022/07/13 03:32:41;;;;;;;6.00;3.83;;;;;;;15.13;100.00;98656.25;4990924;28;20034;-73
2022/07/13 03:35:07;;;;;;;6.63;4.20;;;;;;;15.08;100.00;98654.41;5005345;28;20092;-73
2022/07/13 03:37:32;;;;;;;5.50;3.72;;;;;;;15.09;100.00;98671.78;5010594;28;20026;-73
2022/07/13 03:39:58;;;;;;;8.77;4.25;;;;;;;15.41;100.00;98663.38;5010586;28;20479;-73
2022/07/13 03:42:23;;;;;;;5.95;3.67;;;;;;;15.94;100.00;98667.09;5010282;28;20030;-73
2022/07/13 03:44:48;;;;;;;6.32;3.97;;;;;;;16.46;100.00;98675.75;5010056;28;20072;-73
2022/07/13 03:47:14;;;;;;;7.85;4.50;;;;;;;16.79;100.00;98665.25;5009145;28;20427;-73
2022/07/13 03:49:39;;;;;;;4.60;3.70;;;;;;;17.11;100.00;98685.03;5010168;28;20076;-73
2022/07/13 03:52:05;;;;;;;4.70;3.58;;;;;;;17.85;100.00;98676.78;5010370;28;20041;-73
2022/07/13 03:54:31;;;;;;;4.00;3.22;;;;;;;18.93;100.00;98678.41;5002556;28;20075;-73
2022/07/13 03:56:56;;;;;;;5.93;3.70;;;;;;;19.27;100.00;98678.25;5012319;28;20112;-73
2022/07/13 03:59:21;;;;;;;4.95;3.42;;;;;;;20.46;96.64;98670.19;5014467;28;20112;-73
2022/07/13 04:01:47;;;;;;;5.13;3.55;;;;;;;20.68;94.84;98682.88;4991963;28;20490;-73
2022/07/13 04:04:12;;;;;;;5.38;3.45;;;;;;;20.82;92.99;98683.41;4990737;28;20579;-74
2022/07/13 04:06:38;;;;;;;8.82;3.70;;;;;;;20.66;93.88;98674.09;4973652;28;20026;-73
2022/07/13 04:09:04;;;;;;;6.70;3.60;;;;;;;21.46;88.35;98691.16;4990544;28;20390;-73
2022/07/13 04:11:29;;;;;;;4.82;2.92;;;;;;;21.41;86.65;98696.94;4991373;28;20135;-73
2022/07/13 04:13:54;;;;;;;7.95;3.45;;;;;;;20.72;91.34;98678.28;5010223;28;20483;-73
2022/07/13 04:16:20;;;;;;;5.90;3.53;;;;;;;19.98;96.97;98676.34;5010316;28;20490;-73
2022/07/13 04:18:45;;;;;;;4.28;3.30;;;;;;;19.60;100.00;98675.66;4992441;28;20132;-73
2022/07/13 04:21:13;;;;;;;5.40;3.30;;;;;;;19.15;100.00;98678.97;5010025;28;20092;-73
2022/07/13 04:23:39;;;;;;;5.72;3.58;;;;;;;19.76;100.00;98673.91;4992351;28;20038;-73
2022/07/13 04:26:05;;;;;;;6.03;3.67;;;;;;;21.35;89.74;98690.78;4992521;28;20478;-73
2022/07/13 04:28:30;;;;;;;5.90;3.63;;;;;;;22.05;84.64;98694.22;4992547;28;20026;-73
2022/07/13 04:30:55;;;;;;;7.93;3.80;;;;;;;21.91;83.98;98691.81;4976190;28;20455;-73
2022/07/13 04:33:21;;;;;;;5.60;3.55;;;;;;;21.22;88.53;98695.53;5009963;28;20068;-73
2022/07/13 04:35:46;;;;;;;8.00;4.53;;;;;;;20.18;95.92;98686.63;5010372;28;20141;-73
2022/07/13 04:38:12;;;;;;;6.55;4.32;;;;;;;19.52;100.00;98682.03;5013428;28;20053;-73
2022/07/13 04:40:38;;;;;;;11.23;4.63;;;;;;;19.52;100.00;98688.41;5013451;28;20033;-73
2022/07/13 04:43:04;;;;;;;9.93;5.05;;;;;;;19.75;100.00;98684.19;5013381;28;20034;-73
2022/07/13 04:45:29;;;;;;;8.48;4.60;;;;;;;19.30;100.00;98701.72;5012928;28;20172;-74
2022/07/13 04:47:54;;;;;;;5.38;3.67;;;;;;;18.61;100.00;98693.66;5012992;28;20064;-74
2022/07/13 04:50:20;;;;;;;7.15;4.97;;;;;;;18.18;100.00;98691.75;4993487;28;20072;-74
2022/07/13 04:52:45;;;;;;;6.05;4.40;;;;;;;18.15;100.00;98686.84;5013902;28;20021;-74
2022/07/13 04:55:10;;;;;;;6.00;4.20;;;;;;;18.03;100.00;98692.25;5012993;28;20035;-74
2022/07/13 04:57:36;;;;;;;4.78;3.80;;;;;;;18.18;100.00;98697.28;5017245;28;20026;-76
2022/07/13 05:00:05;;;;;;;7.15;4.45;;;;;;;18.56;100.00;98694.66;5014248;28;20036;-76
2022/07/13 05:02:30;;;;;;;6.95;4.43;;;;;;;18.23;100.00;98689.97;5011955;28;20386;-75
2022/07/13 05:04:56;;;;;;;5.57;4.25;;;;;;;17.83;100.00;98695.63;5012851;28;20038;-74
2022/07/13 05:07:21;;;;;;;9.02;4.40;;;;;;;17.83;100.00;98701.19;5013380;28;20475;-74
2022/07/13 05:09:46;;;;;;;7.65;4.40;;;;;;;17.47;100.00;98703.38;5013193;28;20065;-74
2022/07/13 05:12:12;;;;;;;4.78;4.22;;;;;;;17.35;100.00;98697.66;5012992;28;20076;-74
2022/07/13 05:14:37;;;;;;;10.13;5.00;;;;;;;17.61;100.00;98702.13;5012955;28;20034;-75
2022/07/13 05:17:03;;;;;;;5.88;4.65;;;;;;;18.18;100.00;98702.81;5011649;28;20367;-76
2022/07/13 05:19:28;;;;;;;8.82;4.43;;;;;;;18.48;100.00;98694.66;5012909;28;20038;-75
2022/07/13 05:21:54;;;;;;;8.98;4.38;;;;;;;18.56;100.00;98696.63;5015738;28;20474;-75
2022/07/13 05:24:19;;;;;;;8.55;4.88;;;;;;;18.57;100.00;98701.03;5016320;28;20053;-75
2022/07/13 05:26:44;;;;;;;7.35;4.13;;;;;;;18.45;100.00;98700.84;5015484;28;20057;-76
2022/07/13 05:29:10;;;;;;;8.68;4.25;;;;;;;18.22;100.00;98699.41;5011999;28;20030;-76
2022/07/13 05:31:35;;;;;;;6.97;4.53;;;;;;;18.54;100.00;98708.00;5011938;28;20030;-75
2022/07/13 05:34:01;;;;;;;8.20;4.70;;;;;;;18.33;100.00;98703.44;5009776;28;20477;-75
2022/07/13 05:36:27;;;;;;;7.78;3.83;;;;;;;18.31;100.00;98711.28;5011329;28;20026;-76
2022/07/13 05:38:53;;;;;;;6.30;3.95;;;;;;;18.71;100.00;98710.75;5011093;28;20371;-76
2022/07/13 05:41:18;;;;;;;7.43;4.00;;;;;;;18.83;100.00;98715.63;5011346;28;20041;-76
2022/07/13 05:43:44;;;;;;;5.45;3.90;;;;;;;18.71;100.00;98709.94;5012185;28;20040;-76
2022/07/13 05:46:09;;;;;;;4.10;3.38;;;;;;;18.88;100.00;98712.69;5012243;28;20117;-75
2022/07/13 05:48:35;;;;;;;9.43;4.03;;;;;;;19.00;100.00;98718.34;5010982;28;20025;-76
2022/07/13 05:51:00;;;;;;;8.48;3.60;;;;;;;18.84;100.00;98714.47;5011678;28;20026;-75
2022/07/13 05:53:26;;;;;;;6.88;3.88;;;;;;;18.78;100.00;98721.34;5012523;28;20034;-75
2022/07/13 05:55:51;;;;;;;8.52;3.90;;;;;;;18.18;100.00;98718.63;5011984;28;20057;-74
2022/07/13 05:58:17;;;;;;;7.20;3.75;;;;;;;18.23;100.00;98714.88;5012108;28;20034;-73
2022/07/13 06:00:42;;;;;;;5.28;3.80;;;;;;;17.95;100.00;98725.47;5012279;28;20470;-75
2022/07/13 06:03:07;;;;;;;5.57;4.10;;;;;;;17.93;100.00;98711.94;5011968;28;20029;-74
2022/07/13 06:05:33;;;;;;;6.53;3.45;;;;;;;17.90;100.00;98718.13;5012278;28;20549;-75
2022/07/13 06:07:58;;;;;;;4.80;4.07;;;;;;;18.71;100.00;98710.75;5012590;28;20045;-77
2022/07/13 06:10:23;;;;;;;5.60;3.72;;;;;;;18.89;100.00;98708.75;5017007;28;20033;-75
2022/07/13 06:12:49;;;;;;;7.38;4.10;;;;;;;19.09;100.00;98705.25;5013183;28;20042;-75
2022/07/13 06:15:14;;;;;;;6.82;3.85;;;;;;;19.27;100.00;98709.56;5011979;28;20030;-76
2022/07/13 06:17:39;;;;;;;5.55;3.90;;;;;;;19.01;100.00;98708.06;5011861;28;20034;-75
2022/07/13 06:20:06;;;;;;;6.47;3.72;;;;;;;19.37;100.00;98711.16;5011551;28;20084;-76
2022/07/13 06:22:31;;;;;;;5.28;3.60;;;;;;;19.42;100.00;98716.53;5012107;28;20026;-76
2022/07/13 06:24:56;;;;;;;6.13;3.80;;;;;;;19.72;100.00;98706.25;5011041;28;20490;-74
2022/07/13 06:27:22;;;;;;;8.18;4.13;;;;;;;19.65;100.00;98704.00;5011559;28;20041;-74
2022/07/13 06:29:47;;;;;;;5.78;3.60;;;;;;;19.44;100.00;98710.69;5011686;28;20029;-75
2022/07/13 06:32:13;;;;;;;4.85;3.92;;;;;;;19.20;100.00;98712.03;5011865;28;20025;-75
2022/07/13 06:34:38;;;;;;;5.07;3.75;;;;;;;19.39;100.00;98710.84;5011344;28;20046;-75
2022/07/13 06:37:03;;;;;;;7.63;4.03;;;;;;;19.49;100.00;98716.84;5012110;28;20616;-75
2022/07/13 06:39:29;;;;;;;8.70;4.40;;;;;;;19.60;100.00;98715.31;5011538;28;20037;-75
2022/07/13 06:41:54;;;;;;;5.45;3.78;;;;;;;19.78;100.00;98710.47;5011484;28;20463;-76
2022/07/13 06:44:21;;;;;;;8.25;4.05;;;;;;;19.93;100.00;98718.19;5011611;28;20494;-74
2022/07/13 06:46:46;;;;;;;6.45;3.83;;;;;;;20.32;100.00;98716.13;5010665;28;20029;-74
2022/07/13 06:49:12;;;;;;;5.18;3.50;;;;;;;20.64;99.08;98721.69;5011048;28;20026;-75
2022/07/13 06:51:38;;;;;;;6.45;3.83;;;;;;;20.66;98.31;98724.13;5010627;28;20132;-75
2022/07/13 06:54:03;;;;;;;4.65;3.70;;;;;;;20.47;98.11;98718.28;5011234;28;20114;-73
2022/07/13 06:56:29;;;;;;;6.75;3.90;;;;;;;20.53;99.18;98708.56;5011293;28;20030;-74
2022/07/13 06:58:54;;;;;;;5.38;3.75;;;;;;;20.46;98.90;98699.97;5010846;28;20492;-73
2022/07/13 07:01:20;;;;;;;5.90;3.63;;;;;;;20.57;99.71;98713.09;5011170;28;20041;-73
2022/07/13 07:03:46;;;;;;;6.13;3.70;;;;;;;20.64;98.64;98701.44;5010600;28;20079;-74
2022/07/13 07:06:12;;;;;;;5.43;3.35;;;;;;;20.87;97.33;98708.19;5008003;28;20693;-74
2022/07/13 07:08:37;;;;;;;4.45;3.22;;;;;;;21.08;94.17;98703.34;5008283;28;20034;-73
2022/07/13 07:11:03;;;;;;;4.30;3.58;;;;;;;21.02;95.17;98701.97;5007120;28;20060;-75
2022/07/13 07:13:28;;;;;;;7.38;3.88;;;;;;;21.15;93.47;98692.50;5008135;28;20471;-75
2022/07/13 07:15:53;;;;;;;6.88;3.70;;;;;;;21.04;94.55;98687.72;5008363;28;20034;-75
2022/07/13 07:18:21;;;;;;;5.43;3.80;;;;;;;21.19;94.56;98696.22;5007803;28;20022;-76
2022/07/13 07:20:47;;;;;;;5.70;3.20;;;;;;;21.18;95.01;98689.03;5008174;28;20021;-74
2022/07/13 07:23:13;;;;;;;4.10;3.22;;;;;;;20.88;95.55;98682.00;5008631;28;20045;-74
2022/07/13 07:25:40;;;;;;;5.20;3.50;;;;;;;21.33;94.43;98682.78;5008096;28;20162;-74
2022/07/13 07:28:06;;;;;;;7.88;3.58;;;;;;;21.31;93.56;98685.09;5008341;28;20018;-75
2022/07/13 07:30:32;;;;;;;5.85;3.90;;;;;;;21.51;92.80;98671.41;5008502;28;20041;-75
2022/07/13 07:32:57;;;;;;;6.88;3.28;;;;;;;21.50;92.54;98670.59;5007304;28;20029;-75
2022/07/13 07:35:23;;;;;;;3.58;2.78;;;;;;;21.83;91.58;98662.09;5004812;28;20057;-75
2022/07/13 07:37:48;;;;;;;7.63;3.47;;;;;;;21.94;90.44;98659.63;5005284;28;20038;-74
2022/07/13 07:40:14;;;;;;;10.15;3.20;;;;;;;22.01;89.41;98663.44;5007761;28;20041;-75
2022/07/13 07:42:39;;;;;;;5.40;3.35;;;;;;;22.08;88.26;98663.66;5007646;28;20065;-74
2022/07/13 07:45:05;;;;;;;4.20;2.90;;;;;;;21.94;87.26;98660.44;5006374;28;20033;-75
2022/07/13 07:47:31;;;;;;;5.00;3.30;;;;;;;21.91;87.88;98652.78;5005351;28;20034;-75
2022/07/13 07:49:59;;;;;;;4.07;3.10;;;;;;;22.43;85.21;98642.34;5006977;28;20037;-73
2022/07/13 07:52:24;;;;;;;6.65;3.22;;;;;;;22.69;84.08;98644.69;5004827;28;20542;-74
2022/07/13 07:54:50;;;;;;;5.25;3.05;;;;;;;22.68;82.26;98648.63;5006665;28;20105;-74
2022/07/13 07:57:15;;;;;;;5.00;3.45;;;;;;;22.81;82.13;98646.59;5006450;28;20026;-73
2022/07/13 07:59:41;;;;;;;6.03;3.08;;;;;;;22.89;81.16;98648.41;5006874;28;20497;-71
2022/07/13 08:02:07;;;;;;;9.32;3.80;;;;;;;22.79;81.90;98649.75;5006104;28;20076;-75
2022/07/13 08:04:33;;;;;;;4.32;3.40;;;;;;;23.08;80.55;98642.91;5006196;28;20030;-74
2022/07/13 08:06:59;;;;;;;5.10;3.55;;;;;;;23.52;79.31;98638.03;5006609;28;20018;-74
2022/07/13 08:09:28;;;;;;;6.53;3.97;;;;;;;24.14;75.14;98648.22;5007178;28;20090;-73
2022/07/13 08:11:54;;;;;;;17.55;3.55;;;;;;;25.30;68.64;98640.41;5008654;28;20538;-73
2022/07/13 08:14:19;;;;;;;4.50;3.67;;;;;;;26.06;62.96;98645.56;5008962;28;20105;-74
2022/07/13 08:16:47;;;;;;;6.25;3.15;;;;;;;27.60;57.08;98639.16;5011448;28;20204;-73
2022/07/13 08:19:13;;;;;;;4.35;3.40;;;;;;;30.46;48.54;98647.28;5013801;28;20037;-74
2022/07/13 08:21:39;;;;;;;4.55;2.85;;;;;;;31.82;44.61;98646.75;5010164;28;20026;-74
2022/07/13 08:24:04;;;;;;;4.65;3.33;;;;;;;32.13;41.29;98649.66;4999144;28;20034;-73
2022/07/13 08:26:30;;;;;;;3.65;2.70;;;;;;;32.34;38.71;98652.22;5012146;28;20045;-73
2022/07/13 08:28:57;;;;;;;2.72;2.42;;;;;;;30.24;41.22;98651.38;5012251;28;20029;-71
2022/07/13 08:31:23;;;;;;;4.03;2.67;;;;;;;32.26;37.74;98651.53;5012085;28;20088;-72
2022/07/13 08:39:18;;;;;;;4.50;2.50;;;;;;;36.54;29.19;98648.50;5011822;28;20450;-74
2022/07/13 08:41:44;;;;;;;5.35;2.90;;;;;;;36.06;29.76;98640.13;5011469;28;20026;-73
2022/07/13 08:44:10;;;;;;;4.72;3.13;;;;;;;34.78;31.65;98640.41;5011999;28;20387;-74
2022/07/13 08:46:35;;;;;;;5.53;2.60;;;;;;;35.22;31.84;98638.19;5011642;28;20026;-73
2022/07/13 08:49:01;;;;;;;3.20;2.58;;;;;;;35.34;31.07;98629.72;5011638;28;20489;-73
2022/07/13 08:51:27;;;;;;;4.55;2.88;;;;;;;37.46;28.38;98635.03;5011087;28;20037;-72
2022/07/13 08:53:56;;;;;;;4.05;2.50;;;;;;;37.35;28.19;98634.53;5011799;28;20030;-72
2022/07/13 08:56:23;;;;;;;5.00;3.25;;;;;;;35.69;30.18;98625.19;5012768;28;20088;-73
2022/07/13 08:58:49;;;;;;;4.35;3.17;;;;;;;34.10;32.90;98630.84;5011714;28;20061;-74
2022/07/13 09:01:14;;;;;;;4.10;3.13;;;;;;;34.65;32.37;98622.41;4997137;28;20022;-72
2022/07/13 09:03:41;;;;;;;3.78;3.17;;;;;;;32.95;34.63;98618.22;5011401;28;20394;-73
2022/07/13 09:06:07;;;;;;;6.90;3.03;;;;;;;32.17;35.39;98611.56;4993101;28;20126;-72
2022/07/13 09:08:43;;;;;;;4.70;3.05;;;;;;;34.65;31.57;98622.41;5007944;28;20025;-72
2022/07/13 09:11:08;;;;;;;3.63;2.80;;;;;;;31.69;35.70;98608.84;5010085;28;20030;-73
2022/07/13 09:13:42;;;;;;;3.42;3.00;;;;;;;33.87;32.97;98623.97;5011524;28;20087;-73
2022/07/13 09:16:16;;;;;;;4.43;3.30;;;;;;;33.55;33.58;98617.25;5011719;28;20041;-75
2022/07/13 09:18:44;;;;;;;4.07;3.20;;;;;;;33.56;33.08;98618.84;5011429;28;20077;-74
2022/07/13 09:21:16;;;;;;;3.70;2.92;;;;;;;34.86;31.30;98621.94;4992831;28;20491;-74
2022/07/13 09:23:42;;;;;;;3.55;2.65;;;;;;;34.67;31.40;98614.25;5012022;28;20038;-73
2022/07/13 09:26:07;;;;;;;3.55;2.70;;;;;;;35.97;29.79;98620.78;5010960;28;20045;-75
2022/07/13 09:28:47;;;;;;;4.03;2.90;;;;;;;35.55;28.90;98617.00;5008752;28;20030;-74
2022/07/13 09:31:14;;;;;;;3.63;3.00;;;;;;;36.66;28.47;98616.34;5006971;28;20049;-75
2022/07/13 09:33:41;;;;;;;5.20;2.50;;;;;;;36.03;29.52;98618.97;5009184;28;20081;-77
2022/07/13 09:36:23;;;;;;;3.70;2.80;;;;;;;34.68;30.29;98610.16;5009375;28;20487;-73
2022/07/13 09:38:52;;;;;;;5.07;3.13;;;;;;;34.60;30.39;98611.56;4990925;28;20029;-76
2022/07/13 09:41:20;;;;;;;4.45;2.78;;;;;;;37.10;27.10;98613.78;5009273;28;20033;-72
2022/07/13 09:46:47;;;;;;;6.90;3.08;;;;;;;36.53;28.04;98601.28;5014473;28;20041;-73
2022/07/13 09:49:15;;;;;;;3.53;2.47;;;;;;;37.20;26.71;98598.34;5015880;28;20034;-74
2022/07/13 09:51:41;;;;;;;3.28;2.50;;;;;;;36.69;26.52;98592.63;5016231;28;20026;-75
2022/07/13 09:54:08;;;;;;;4.05;2.95;;;;;;;36.47;25.94;98603.06;5012180;28;20091;-73
2022/07/13 09:56:35;;;;;;;3.70;2.72;;;;;;;37.12;25.18;98592.09;5009925;28;20103;-73
2022/07/13 09:59:04;;;;;;;4.10;3.03;;;;;;;36.95;24.97;98593.44;5008012;28;20045;-73
2022/07/13 10:01:30;;;;;;;3.90;2.83;;;;;;;36.28;26.27;98584.88;5008089;28;20109;-73
2022/07/13 10:03:57;;;;;;;3.78;2.70;;;;;;;34.10;28.09;98591.91;5008982;28;20122;-74
2022/07/13 10:06:22;;;;;;;3.20;2.40;;;;;;;35.86;26.06;98581.19;5009179;28;20493;-73
2022/07/13 10:08:49;;;;;;;3.95;2.92;;;;;;;35.50;26.60;98577.69;5008804;28;20126;-73
2022/07/13 10:11:16;;;;;;;4.90;2.92;;;;;;;34.47;28.22;98582.19;5009051;28;20026;-74
2022/07/13 10:13:44;;;;;;;3.83;2.70;;;;;;;36.24;26.29;98578.50;5009208;28;20034;-73
2022/07/13 10:16:09;;;;;;;3.10;2.55;;;;;;;37.15;25.25;98579.78;5008974;28;20034;-72
2022/07/13 10:18:41;;;;;;;4.50;2.83;;;;;;;34.32;28.02;98566.69;5008480;28;20380;-74
2022/07/13 10:21:24;;;;;;;3.13;2.53;;;;;;;33.72;29.17;98560.19;5008522;28;20263;-74
2022/07/13 10:23:50;;;;;;;2.92;2.50;;;;;;;34.33;29.29;98560.53;5007963;28;20136;-74
2022/07/13 10:26:24;;;;;;;4.35;2.90;;;;;;;33.65;29.13;98560.31;5008688;28;20120;-74
2022/07/13 10:29:06;;;;;;;3.38;2.75;;;;;;;33.21;29.21;98555.00;5008199;28;20017;-71
2022/07/13 10:31:33;;;;;;;3.28;2.28;;;;;;;35.37;26.90;98554.81;5008363;28;20034;-72
2022/07/13 10:34:00;;;;;;;3.05;2.60;;;;;;;36.37;25.50;98552.88;5008116;28;20068;-73
2022/07/13 10:36:48;;;;;;;3.42;2.50;;;;;;;33.97;28.11;98541.81;5008968;28;20033;-71
2022/07/13 10:39:13;;;;;;;3.20;2.30;;;;;;;33.36;29.04;98542.97;5006276;28;20044;-73
2022/07/13 10:42:10;;;;;;;2.60;2.30;;;;;;;32.67;29.91;98540.88;5008219;28;20041;-73
2022/07/13 10:44:41;;;;;;;3.13;2.30;;;;;;;31.19;31.74;98537.00;5006280;28;20053;-71
2022/07/13 10:47:12;;;;;;;3.83;2.50;;;;;;;29.51;33.62;98538.28;5007126;28;20030;-73
2022/07/13 10:49:48;;;;;;;3.15;2.40;;;;;;;29.21;35.01;98526.66;5008311;28;20380;-72
2022/07/13 10:52:25;;;;;;;3.10;2.70;;;;;;;27.98;36.50;98510.38;5008580;28;20490;-72
2022/07/13 10:55:03;;;;;;;3.33;2.45;;;;;;;28.49;36.45;98510.94;4990710;28;20380;-71
2022/07/13 10:57:29;;;;;;;5.03;2.80;;;;;;;28.92;36.35;98513.78;5007309;28;20037;-73
2022/07/13 11:00:01;;;;;;;3.55;2.50;;;;;;;29.33;34.76;98512.16;5006948;28;20069;-74
2022/07/13 11:02:50;;;;;;;2.70;2.33;;;;;;;29.13;34.29;98505.34;4991905;28;20057;-72
2022/07/13 11:05:20;;;;;;;2.70;2.40;;;;;;;28.91;34.84;98501.75;4999913;28;20037;-72
2022/07/13 11:07:50;;;;;;;2.88;2.53;;;;;;;28.49;35.09;98496.06;5006420;28;20092;-72
2022/07/13 11:10:25;;;;;;;2.95;2.30;;;;;;;28.65;35.64;98491.69;5006529;28;20029;-71
2022/07/13 11:13:09;;;;;;;3.95;2.53;;;;;;;29.11;34.65;98502.09;5006927;28;20449;-72
2022/07/13 11:15:42;;;;;;;2.63;2.30;;;;;;;28.55;35.68;98491.63;5006032;28;20050;-72
2022/07/13 11:18:27;;;;;;;4.95;2.30;;;;;;;28.76;35.32;98491.66;5006628;28;20117;-73
2022/07/13 11:21:04;;;;;;;3.13;2.70;;;;;;;29.13;34.66;98488.44;5006422;28;20553;-72
2022/07/13 11:26:28;;;;;;;3.28;2.55;;;;;;;29.47;34.33;98477.50;5005498;28;20432;-72
2022/07/13 11:29:25;;;;;;;3.70;2.40;;;;;;;29.42;34.17;98470.25;5005122;28;20057;-73
2022/07/13 11:31:57;;;;;;;2.80;2.25;;;;;;;29.84;33.62;98474.94;4988594;28;20046;-72
2022/07/13 11:34:24;;;;;;;5.65;2.28;;;;;;;30.10;33.10;98467.94;5006510;28;20383;-71
2022/07/13 11:36:50;;;;;;;2.85;2.22;;;;;;;29.26;33.30;98467.06;5006492;28;20045;-71
2022/07/13 11:39:26;;;;;;;3.42;2.20;;;;;;;28.98;33.52;98469.91;5005578;28;20490;-71